sensor_id;sensor_type;location;lat;lon;timestamp;temperature;humidity
60701;DHT22;46541;49.894;10.886;2023-12-29T00:01:56;10.30;99.90
60701;DHT22;46541;49.894;10.886;2023-12-29T00:04:23;10.30;99.90
60701;DHT22;46541;49.894;10.886;2023-12-29T00:06:50;10.30;99.90
60701;DHT22;46541;49.894;10.886;2023-12-29T00:09:28;10.30;99.90
60701;DHT22;46541;49.894;10.886;2023-12-29T00:11:54;10.30;99.90
60701;DHT22;46541;49.894;10.886;2023-12-29T00:14:21;10.20;99.90
60701;DHT22;46541;49.894;10.886;2023-12-29T00:16:48;10.20;99.90
60701;DHT22;46541;49.894;10.886;2023-12-29T00:19:15;10.20;99.90
60701;DHT22;46541;49.894;10.886;2023-12-29T00:21:42;10.20;99.90
60701;DHT22;46541;49.894;10.886;2023-12-29T00:24:09;10.20;99.90
60701;DHT22;46541;49.894;10.886;2023-12-29T00:26:36;10.20;99.90
60701;DHT22;46541;49.894;10.886;2023-12-29T00:29:03;10.20;99.90
60701;DHT22;46541;49.894;10.886;2023-12-29T00:31:30;10.20;99.90
60701;DHT22;46541;49.894;10.886;2023-12-29T00:33:57;10.20;99.90
60701;DHT22;46541;49.894;10.886;2023-12-29T00:36:24;10.20;99.90
60701;DHT22;46541;49.894;10.886;2023-12-29T00:38:51;10.20;99.90
60701;DHT22;46541;49.894;10.886;2023-12-29T00:41:18;10.20;99.90
60701;DHT22;46541;49.894;10.886;2023-12-29T00:43:44;10.20;99.90
60701;DHT22;46541;49.894;10.886;2023-12-29T00:46:14;10.30;99.90
60701;DHT22;46541;49.894;10.886;2023-12-29T00:48:41;10.20;99.90
60701;DHT22;46541;49.894;10.886;2023-12-29T00:51:08;10.20;99.90
60701;DHT22;46541;49.894;10.886;2023-12-29T00:53:35;10.20;99.90
60701;DHT22;46541;49.894;10.886;2023-12-29T00:56:02;10.20;99.90
60701;DHT22;46541;49.894;10.886;2023-12-29T00:58:29;10.20;99.90
60701;DHT22;46541;49.894;10.886;2023-12-29T01:00:56;10.20;99.90
60701;DHT22;46541;49.894;10.886;2023-12-29T01:03:23;10.20;99.90
60701;DHT22;46541;49.894;10.886;2023-12-29T01:05:52;10.10;99.90
60701;DHT22;46541;49.894;10.886;2023-12-29T01:08:19;10.10;99.90
60701;DHT22;46541;49.894;10.886;2023-12-29T01:10:45;10.10;99.90
60701;DHT22;46541;49.894;10.886;2023-12-29T01:13:12;10.10;99.90
60701;DHT22;46541;49.894;10.886;2023-12-29T01:15:39;10.20;99.90
60701;DHT22;46541;49.894;10.886;2023-12-29T01:18:07;10.20;99.90
60701;DHT22;46541;49.894;10.886;2023-12-29T01:20:34;10.10;99.90
60701;DHT22;46541;49.894;10.886;2023-12-29T01:23:01;10.20;99.90
60701;DHT22;46541;49.894;10.886;2023-12-29T01:25:27;10.20;99.90
60701;DHT22;46541;49.894;10.886;2023-12-29T01:27:54;10.20;99.90
60701;DHT22;46541;49.894;10.886;2023-12-29T01:30:22;10.30;99.90
60701;DHT22;46541;49.894;10.886;2023-12-29T01:32:49;10.20;99.90
60701;DHT22;46541;49.894;10.886;2023-12-29T01:35:16;10.30;99.90
60701;DHT22;46541;49.894;10.886;2023-12-29T01:37:45;10.30;99.90
60701;DHT22;46541;49.894;10.886;2023-12-29T01:40:12;10.30;99.90
60701;DHT22;46541;49.894;10.886;2023-12-29T01:42:39;10.20;99.90
60701;DHT22;46541;49.894;10.886;2023-12-29T01:45:06;10.20;99.90
60701;DHT22;46541;49.894;10.886;2023-12-29T01:47:39;10.30;99.90
60701;DHT22;46541;49.894;10.886;2023-12-29T01:50:06;10.30;99.90
60701;DHT22;46541;49.894;10.886;2023-12-29T01:52:33;10.30;99.90
60701;DHT22;46541;49.894;10.886;2023-12-29T01:55:00;10.30;99.90
60701;DHT22;46541;49.894;10.886;2023-12-29T01:57:27;10.20;99.90
60701;DHT22;46541;49.894;10.886;2023-12-29T01:59:54;10.20;99.90
60701;DHT22;46541;49.894;10.886;2023-12-29T02:02:21;10.20;99.90
60701;DHT22;46541;49.894;10.886;2023-12-29T02:04:48;10.10;99.90
60701;DHT22;46541;49.894;10.886;2023-12-29T02:07:15;10.10;99.90
60701;DHT22;46541;49.894;10.886;2023-12-29T02:09:42;10.10;99.90
60701;DHT22;46541;49.894;10.886;2023-12-29T02:12:09;10.10;99.90
60701;DHT22;46541;49.894;10.886;2023-12-29T02:14:35;10.00;99.90
60701;DHT22;46541;49.894;10.886;2023-12-29T02:17:21;10.00;99.90
60701;DHT22;46541;49.894;10.886;2023-12-29T02:19:49;10.00;99.90
60701;DHT22;46541;49.894;10.886;2023-12-29T02:22:17;9.90;99.90
60701;DHT22;46541;49.894;10.886;2023-12-29T02:24:50;9.90;99.90
60701;DHT22;46541;49.894;10.886;2023-12-29T02:30:29;9.80;99.90
60701;DHT22;46541;49.894;10.886;2023-12-29T02:33:01;9.80;99.90
60701;DHT22;46541;49.894;10.886;2023-12-29T02:35:43;9.80;99.90
60701;DHT22;46541;49.894;10.886;2023-12-29T02:38:11;9.80;99.90
60701;DHT22;46541;49.894;10.886;2023-12-29T02:40:38;9.80;99.90
60701;DHT22;46541;49.894;10.886;2023-12-29T02:43:04;9.70;99.90
60701;DHT22;46541;49.894;10.886;2023-12-29T02:45:31;9.70;99.90
60701;DHT22;46541;49.894;10.886;2023-12-29T02:47:58;9.70;99.90
60701;DHT22;46541;49.894;10.886;2023-12-29T02:50:26;9.70;99.90
60701;DHT22;46541;49.894;10.886;2023-12-29T02:52:53;9.70;99.90
60701;DHT22;46541;49.894;10.886;2023-12-29T02:55:20;9.60;99.90
60701;DHT22;46541;49.894;10.886;2023-12-29T02:57:47;9.60;99.90
60701;DHT22;46541;49.894;10.886;2023-12-29T03:00:14;9.60;99.90
60701;DHT22;46541;49.894;10.886;2023-12-29T03:02:41;9.60;99.90
60701;DHT22;46541;49.894;10.886;2023-12-29T03:05:08;9.60;99.90
60701;DHT22;46541;49.894;10.886;2023-12-29T03:07:35;9.60;99.90
60701;DHT22;46541;49.894;10.886;2023-12-29T03:10:02;9.50;99.90
60701;DHT22;46541;49.894;10.886;2023-12-29T03:12:29;9.60;99.90
60701;DHT22;46541;49.894;10.886;2023-12-29T03:14:57;9.50;99.90
60701;DHT22;46541;49.894;10.886;2023-12-29T03:17:24;9.60;99.90
60701;DHT22;46541;49.894;10.886;2023-12-29T03:19:52;9.60;99.90
60701;DHT22;46541;49.894;10.886;2023-12-29T03:22:19;9.60;99.90
60701;DHT22;46541;49.894;10.886;2023-12-29T03:24:48;9.60;99.90
60701;DHT22;46541;49.894;10.886;2023-12-29T03:27:15;9.60;99.90
60701;DHT22;46541;49.894;10.886;2023-12-29T03:29:42;9.60;99.90
60701;DHT22;46541;49.894;10.886;2023-12-29T03:32:09;9.60;99.90
60701;DHT22;46541;49.894;10.886;2023-12-29T03:34:36;9.60;99.90
60701;DHT22;46541;49.894;10.886;2023-12-29T03:37:03;9.60;99.90
60701;DHT22;46541;49.894;10.886;2023-12-29T03:39:30;9.70;99.90
60701;DHT22;46541;49.894;10.886;2023-12-29T03:41:57;9.60;99.90
60701;DHT22;46541;49.894;10.886;2023-12-29T03:44:23;9.70;99.90
60701;DHT22;46541;49.894;10.886;2023-12-29T03:46:50;9.60;99.90
60701;DHT22;46541;49.894;10.886;2023-12-29T03:49:18;9.60;99.90
60701;DHT22;46541;49.894;10.886;2023-12-29T03:51:46;9.60;99.90
60701;DHT22;46541;49.894;10.886;2023-12-29T03:54:13;9.60;99.90
60701;DHT22;46541;49.894;10.886;2023-12-29T03:56:40;9.60;99.90
60701;DHT22;46541;49.894;10.886;2023-12-29T03:59:06;9.60;99.90
60701;DHT22;46541;49.894;10.886;2023-12-29T04:01:34;9.50;99.90
60701;DHT22;46541;49.894;10.886;2023-12-29T04:04:01;9.50;99.90
60701;DHT22;46541;49.894;10.886;2023-12-29T04:06:28;9.50;99.90
60701;DHT22;46541;49.894;10.886;2023-12-29T04:08:55;9.50;99.90
60701;DHT22;46541;49.894;10.886;2023-12-29T04:11:22;9.50;99.90
60701;DHT22;46541;49.894;10.886;2023-12-29T04:13:49;9.40;99.90
60701;DHT22;46541;49.894;10.886;2023-12-29T04:16:15;9.50;99.90
60701;DHT22;46541;49.894;10.886;2023-12-29T04:18:43;9.50;99.90
60701;DHT22;46541;49.894;10.886;2023-12-29T04:21:14;9.50;99.90
60701;DHT22;46541;49.894;10.886;2023-12-29T04:23:41;9.50;99.90
60701;DHT22;46541;49.894;10.886;2023-12-29T04:26:11;9.50;99.90
60701;DHT22;46541;49.894;10.886;2023-12-29T04:28:38;9.60;99.90
60701;DHT22;46541;49.894;10.886;2023-12-29T04:31:04;9.60;99.90
60701;DHT22;46541;49.894;10.886;2023-12-29T04:33:31;9.50;99.90
60701;DHT22;46541;49.894;10.886;2023-12-29T04:35:58;9.60;99.90
60701;DHT22;46541;49.894;10.886;2023-12-29T04:38:25;9.50;99.90
60701;DHT22;46541;49.894;10.886;2023-12-29T04:40:52;9.50;99.90
60701;DHT22;46541;49.894;10.886;2023-12-29T04:43:19;9.50;99.90
60701;DHT22;46541;49.894;10.886;2023-12-29T04:45:46;9.50;99.90
60701;DHT22;46541;49.894;10.886;2023-12-29T04:48:12;9.50;99.90
60701;DHT22;46541;49.894;10.886;2023-12-29T04:50:39;9.50;99.90
60701;DHT22;46541;49.894;10.886;2023-12-29T04:53:06;9.50;99.90
60701;DHT22;46541;49.894;10.886;2023-12-29T04:55:33;9.40;99.90
60701;DHT22;46541;49.894;10.886;2023-12-29T04:57:59;9.40;99.90
60701;DHT22;46541;49.894;10.886;2023-12-29T05:00:27;9.40;99.90
60701;DHT22;46541;49.894;10.886;2023-12-29T05:02:53;9.40;99.90
60701;DHT22;46541;49.894;10.886;2023-12-29T05:05:20;9.40;99.90
60701;DHT22;46541;49.894;10.886;2023-12-29T05:07:47;9.40;99.90
60701;DHT22;46541;49.894;10.886;2023-12-29T05:10:14;9.40;99.90
60701;DHT22;46541;49.894;10.886;2023-12-29T05:12:41;9.40;99.90
60701;DHT22;46541;49.894;10.886;2023-12-29T05:15:08;9.30;99.90
60701;DHT22;46541;49.894;10.886;2023-12-29T05:17:35;9.30;99.90
60701;DHT22;46541;49.894;10.886;2023-12-29T05:20:01;9.30;99.90
60701;DHT22;46541;49.894;10.886;2023-12-29T05:22:28;9.30;99.90
60701;DHT22;46541;49.894;10.886;2023-12-29T05:24:55;9.30;99.90
60701;DHT22;46541;49.894;10.886;2023-12-29T05:27:26;9.20;99.90
60701;DHT22;46541;49.894;10.886;2023-12-29T05:29:53;9.30;99.90
60701;DHT22;46541;49.894;10.886;2023-12-29T05:32:20;9.30;99.90
60701;DHT22;46541;49.894;10.886;2023-12-29T05:34:46;9.20;99.90
60701;DHT22;46541;49.894;10.886;2023-12-29T05:37:13;9.20;99.90
60701;DHT22;46541;49.894;10.886;2023-12-29T05:39:43;9.20;99.90
60701;DHT22;46541;49.894;10.886;2023-12-29T05:42:10;9.20;99.90
60701;DHT22;46541;49.894;10.886;2023-12-29T05:44:37;9.20;99.90
60701;DHT22;46541;49.894;10.886;2023-12-29T05:47:05;9.20;99.90
60701;DHT22;46541;49.894;10.886;2023-12-29T05:49:32;9.20;99.90
60701;DHT22;46541;49.894;10.886;2023-12-29T05:52:07;9.20;99.90
60701;DHT22;46541;49.894;10.886;2023-12-29T05:54:35;9.20;99.90
60701;DHT22;46541;49.894;10.886;2023-12-29T05:57:02;9.10;99.90
60701;DHT22;46541;49.894;10.886;2023-12-29T05:59:29;9.10;99.90
60701;DHT22;46541;49.894;10.886;2023-12-29T06:01:56;9.10;99.90
60701;DHT22;46541;49.894;10.886;2023-12-29T06:04:23;9.10;99.90
60701;DHT22;46541;49.894;10.886;2023-12-29T06:06:50;9.10;99.90
60701;DHT22;46541;49.894;10.886;2023-12-29T06:09:17;9.10;99.90
60701;DHT22;46541;49.894;10.886;2023-12-29T06:11:44;9.10;99.90
60701;DHT22;46541;49.894;10.886;2023-12-29T06:14:11;9.10;99.90
60701;DHT22;46541;49.894;10.886;2023-12-29T06:16:38;9.10;99.90
60701;DHT22;46541;49.894;10.886;2023-12-29T06:19:05;9.10;99.90
60701;DHT22;46541;49.894;10.886;2023-12-29T06:21:32;9.10;99.90
60701;DHT22;46541;49.894;10.886;2023-12-29T06:23:59;9.10;99.90
60701;DHT22;46541;49.894;10.886;2023-12-29T06:26:26;9.10;99.90
60701;DHT22;46541;49.894;10.886;2023-12-29T06:28:53;9.10;99.90
60701;DHT22;46541;49.894;10.886;2023-12-29T06:31:20;9.00;99.90
60701;DHT22;46541;49.894;10.886;2023-12-29T06:33:47;9.00;99.90
60701;DHT22;46541;49.894;10.886;2023-12-29T06:36:14;9.00;99.90
60701;DHT22;46541;49.894;10.886;2023-12-29T06:38:41;9.00;99.90
60701;DHT22;46541;49.894;10.886;2023-12-29T06:41:08;8.90;99.90
60701;DHT22;46541;49.894;10.886;2023-12-29T06:43:35;8.90;99.90
60701;DHT22;46541;49.894;10.886;2023-12-29T06:46:02;8.90;99.90
60701;DHT22;46541;49.894;10.886;2023-12-29T06:48:29;8.90;99.90
60701;DHT22;46541;49.894;10.886;2023-12-29T06:50:56;8.90;99.90
60701;DHT22;46541;49.894;10.886;2023-12-29T06:53:23;8.90;99.90
60701;DHT22;46541;49.894;10.886;2023-12-29T06:55:50;8.90;99.90
60701;DHT22;46541;49.894;10.886;2023-12-29T06:58:17;9.00;99.90
60701;DHT22;46541;49.894;10.886;2023-12-29T07:00:44;9.00;99.90
60701;DHT22;46541;49.894;10.886;2023-12-29T07:03:14;9.00;99.90
60701;DHT22;46541;49.894;10.886;2023-12-29T07:05:42;9.00;99.90
60701;DHT22;46541;49.894;10.886;2023-12-29T07:08:12;9.00;99.90
60701;DHT22;46541;49.894;10.886;2023-12-29T07:10:39;9.00;99.90
60701;DHT22;46541;49.894;10.886;2023-12-29T07:13:05;9.00;99.90
60701;DHT22;46541;49.894;10.886;2023-12-29T07:15:32;9.00;99.90
60701;DHT22;46541;49.894;10.886;2023-12-29T07:17:59;9.00;99.90
60701;DHT22;46541;49.894;10.886;2023-12-29T07:20:26;9.00;99.90
60701;DHT22;46541;49.894;10.886;2023-12-29T07:22:53;9.10;99.90
60701;DHT22;46541;49.894;10.886;2023-12-29T07:25:20;9.10;99.90
60701;DHT22;46541;49.894;10.886;2023-12-29T07:27:47;9.20;99.90
60701;DHT22;46541;49.894;10.886;2023-12-29T07:30:15;9.20;99.90
60701;DHT22;46541;49.894;10.886;2023-12-29T07:32:42;9.30;99.90
60701;DHT22;46541;49.894;10.886;2023-12-29T07:35:09;9.30;99.90
60701;DHT22;46541;49.894;10.886;2023-12-29T07:37:36;9.30;99.90
60701;DHT22;46541;49.894;10.886;2023-12-29T07:40:03;9.40;99.90
60701;DHT22;46541;49.894;10.886;2023-12-29T07:42:30;9.40;99.90
60701;DHT22;46541;49.894;10.886;2023-12-29T07:44:59;9.40;99.90
60701;DHT22;46541;49.894;10.886;2023-12-29T07:47:26;9.40;99.90
60701;DHT22;46541;49.894;10.886;2023-12-29T07:49:53;9.40;99.90
60701;DHT22;46541;49.894;10.886;2023-12-29T07:52:20;9.50;99.90
60701;DHT22;46541;49.894;10.886;2023-12-29T07:54:46;9.50;99.90
60701;DHT22;46541;49.894;10.886;2023-12-29T07:57:13;9.50;99.90
60701;DHT22;46541;49.894;10.886;2023-12-29T07:59:40;9.60;99.90
60701;DHT22;46541;49.894;10.886;2023-12-29T08:02:07;9.60;99.90
60701;DHT22;46541;49.894;10.886;2023-12-29T08:04:35;9.70;99.90
60701;DHT22;46541;49.894;10.886;2023-12-29T08:07:02;9.80;99.90
60701;DHT22;46541;49.894;10.886;2023-12-29T08:09:30;9.80;99.90
60701;DHT22;46541;49.894;10.886;2023-12-29T08:11:56;9.90;99.90
60701;DHT22;46541;49.894;10.886;2023-12-29T08:14:23;9.90;99.90
60701;DHT22;46541;49.894;10.886;2023-12-29T08:16:50;10.00;99.90
60701;DHT22;46541;49.894;10.886;2023-12-29T08:19:17;10.00;99.90
60701;DHT22;46541;49.894;10.886;2023-12-29T08:21:44;10.10;99.90
60701;DHT22;46541;49.894;10.886;2023-12-29T08:24:11;10.10;99.90
60701;DHT22;46541;49.894;10.886;2023-12-29T08:26:47;10.10;99.90
60701;DHT22;46541;49.894;10.886;2023-12-29T08:29:14;10.10;99.90
60701;DHT22;46541;49.894;10.886;2023-12-29T08:31:42;10.20;99.90
60701;DHT22;46541;49.894;10.886;2023-12-29T08:34:10;10.20;99.90
60701;DHT22;46541;49.894;10.886;2023-12-29T08:36:37;10.30;99.90
60701;DHT22;46541;49.894;10.886;2023-12-29T08:39:04;10.30;99.90
60701;DHT22;46541;49.894;10.886;2023-12-29T08:41:31;10.30;99.90
60701;DHT22;46541;49.894;10.886;2023-12-29T08:43:57;10.30;99.90
60701;DHT22;46541;49.894;10.886;2023-12-29T08:46:24;10.30;99.90
60701;DHT22;46541;49.894;10.886;2023-12-29T08:48:51;10.40;99.90
60701;DHT22;46541;49.894;10.886;2023-12-29T08:51:18;10.40;99.90
60701;DHT22;46541;49.894;10.886;2023-12-29T08:53:45;10.30;99.90
60701;DHT22;46541;49.894;10.886;2023-12-29T08:56:12;10.30;99.90
60701;DHT22;46541;49.894;10.886;2023-12-29T08:58:40;10.30;99.90
60701;DHT22;46541;49.894;10.886;2023-12-29T09:01:08;10.30;99.90
60701;DHT22;46541;49.894;10.886;2023-12-29T09:03:35;10.40;99.90
60701;DHT22;46541;49.894;10.886;2023-12-29T09:06:02;10.40;99.90
60701;DHT22;46541;49.894;10.886;2023-12-29T09:08:30;10.40;99.90
60701;DHT22;46541;49.894;10.886;2023-12-29T09:10:57;10.30;99.90
60701;DHT22;46541;49.894;10.886;2023-12-29T09:13:24;10.30;99.90
60701;DHT22;46541;49.894;10.886;2023-12-29T09:15:54;10.30;99.90
60701;DHT22;46541;49.894;10.886;2023-12-29T09:18:21;10.30;99.90
60701;DHT22;46541;49.894;10.886;2023-12-29T09:20:49;10.20;99.90
60701;DHT22;46541;49.894;10.886;2023-12-29T09:23:16;10.20;99.90
60701;DHT22;46541;49.894;10.886;2023-12-29T09:25:43;10.20;99.90
60701;DHT22;46541;49.894;10.886;2023-12-29T09:28:10;10.30;99.90
60701;DHT22;46541;49.894;10.886;2023-12-29T09:30:37;10.30;99.90
60701;DHT22;46541;49.894;10.886;2023-12-29T09:33:04;10.30;99.90
60701;DHT22;46541;49.894;10.886;2023-12-29T09:35:31;10.30;99.90
60701;DHT22;46541;49.894;10.886;2023-12-29T09:38:01;10.30;99.90
60701;DHT22;46541;49.894;10.886;2023-12-29T09:40:28;10.30;99.90
60701;DHT22;46541;49.894;10.886;2023-12-29T09:42:58;10.40;99.90
60701;DHT22;46541;49.894;10.886;2023-12-29T09:45:26;10.40;99.90
60701;DHT22;46541;49.894;10.886;2023-12-29T09:47:54;10.40;99.90
60701;DHT22;46541;49.894;10.886;2023-12-29T09:50:24;10.30;99.90
60701;DHT22;46541;49.894;10.886;2023-12-29T09:52:52;10.40;99.90
60701;DHT22;46541;49.894;10.886;2023-12-29T09:55:20;10.40;99.90
60701;DHT22;46541;49.894;10.886;2023-12-29T09:57:47;10.50;99.90
60701;DHT22;46541;49.894;10.886;2023-12-29T10:00:16;10.60;99.90
60701;DHT22;46541;49.894;10.886;2023-12-29T10:02:44;10.60;99.90
60701;DHT22;46541;49.894;10.886;2023-12-29T10:05:11;10.70;99.90
60701;DHT22;46541;49.894;10.886;2023-12-29T10:07:39;10.70;99.90
60701;DHT22;46541;49.894;10.886;2023-12-29T10:10:07;10.90;99.90
60701;DHT22;46541;49.894;10.886;2023-12-29T10:12:36;10.90;99.90
60701;DHT22;46541;49.894;10.886;2023-12-29T10:15:12;11.00;99.90
60701;DHT22;46541;49.894;10.886;2023-12-29T10:20:56;11.00;99.90
60701;DHT22;46541;49.894;10.886;2023-12-29T10:23:41;11.00;99.90
60701;DHT22;46541;49.894;10.886;2023-12-29T10:26:11;11.00;99.90
60701;DHT22;46541;49.894;10.886;2023-12-29T10:28:38;11.10;99.90
60701;DHT22;46541;49.894;10.886;2023-12-29T10:31:05;11.10;99.90
60701;DHT22;46541;49.894;10.886;2023-12-29T10:33:32;11.10;99.90
60701;DHT22;46541;49.894;10.886;2023-12-29T10:36:01;11.20;99.90
60701;DHT22;46541;49.894;10.886;2023-12-29T10:38:34;11.30;99.90
60701;DHT22;46541;49.894;10.886;2023-12-29T10:41:15;11.50;99.90
60701;DHT22;46541;49.894;10.886;2023-12-29T10:43:44;11.60;99.90
60701;DHT22;46541;49.894;10.886;2023-12-29T10:46:13;11.60;99.90
60701;DHT22;46541;49.894;10.886;2023-12-29T10:48:41;11.90;99.90
60701;DHT22;46541;49.894;10.886;2023-12-29T10:51:09;12.00;99.90
60701;DHT22;46541;49.894;10.886;2023-12-29T10:53:37;12.10;99.90
60701;DHT22;46541;49.894;10.886;2023-12-29T10:56:17;12.20;99.90
60701;DHT22;46541;49.894;10.886;2023-12-29T10:59:03;12.20;99.90
60701;DHT22;46541;49.894;10.886;2023-12-29T11:01:34;12.30;99.90
60701;DHT22;46541;49.894;10.886;2023-12-29T11:04:06;12.20;99.90
60701;DHT22;46541;49.894;10.886;2023-12-29T11:06:44;12.30;99.90
60701;DHT22;46541;49.894;10.886;2023-12-29T11:09:30;12.40;99.90
60701;DHT22;46541;49.894;10.886;2023-12-29T11:12:02;12.60;99.90
60701;DHT22;46541;49.894;10.886;2023-12-29T11:14:30;12.50;99.90
60701;DHT22;46541;49.894;10.886;2023-12-29T11:16:57;12.60;99.90
60701;DHT22;46541;49.894;10.886;2023-12-29T11:19:28;12.60;99.90
60701;DHT22;46541;49.894;10.886;2023-12-29T11:21:55;12.40;99.90
60701;DHT22;46541;49.894;10.886;2023-12-29T11:24:23;12.30;99.90
60701;DHT22;46541;49.894;10.886;2023-12-29T11:27:04;12.10;99.90
60701;DHT22;46541;49.894;10.886;2023-12-29T11:29:34;12.10;99.90
60701;DHT22;46541;49.894;10.886;2023-12-29T11:32:03;12.10;99.90
60701;DHT22;46541;49.894;10.886;2023-12-29T11:34:42;12.10;99.90
60701;DHT22;46541;49.894;10.886;2023-12-29T11:37:43;12.00;99.90
60701;DHT22;46541;49.894;10.886;2023-12-29T11:40:23;11.90;99.90
60701;DHT22;46541;49.894;10.886;2023-12-29T11:42:54;11.80;99.90
60701;DHT22;46541;49.894;10.886;2023-12-29T11:45:28;11.70;99.90
60701;DHT22;46541;49.894;10.886;2023-12-29T11:47:56;11.70;99.90
60701;DHT22;46541;49.894;10.886;2023-12-29T11:50:28;11.70;99.90
60701;DHT22;46541;49.894;10.886;2023-12-29T11:52:57;11.80;99.90
60701;DHT22;46541;49.894;10.886;2023-12-29T11:55:50;11.80;99.90
60701;DHT22;46541;49.894;10.886;2023-12-29T11:58:25;11.80;99.90
60701;DHT22;46541;49.894;10.886;2023-12-29T12:00:53;11.70;99.90
60701;DHT22;46541;49.894;10.886;2023-12-29T12:03:25;11.80;99.90
60701;DHT22;46541;49.894;10.886;2023-12-29T12:05:54;11.80;99.90
60701;DHT22;46541;49.894;10.886;2023-12-29T12:08:31;11.60;99.90
60701;DHT22;46541;49.894;10.886;2023-12-29T12:14:01;11.60;99.90
60701;DHT22;46541;49.894;10.886;2023-12-29T12:16:49;11.60;99.90
60701;DHT22;46541;49.894;10.886;2023-12-29T12:19:17;11.60;99.90
60701;DHT22;46541;49.894;10.886;2023-12-29T12:21:47;11.60;99.90
60701;DHT22;46541;49.894;10.886;2023-12-29T12:24:18;11.70;99.90
60701;DHT22;46541;49.894;10.886;2023-12-29T12:26:45;11.70;99.90
60701;DHT22;46541;49.894;10.886;2023-12-29T12:29:13;11.70;99.90
60701;DHT22;46541;49.894;10.886;2023-12-29T12:31:56;11.60;99.90
60701;DHT22;46541;49.894;10.886;2023-12-29T12:34:23;11.50;99.90
60701;DHT22;46541;49.894;10.886;2023-12-29T12:36:52;11.60;99.90
60701;DHT22;46541;49.894;10.886;2023-12-29T12:39:20;11.60;99.90
60701;DHT22;46541;49.894;10.886;2023-12-29T12:41:47;11.60;99.90
60701;DHT22;46541;49.894;10.886;2023-12-29T12:44:14;11.60;99.90
60701;DHT22;46541;49.894;10.886;2023-12-29T12:49:16;11.50;99.90
60701;DHT22;46541;49.894;10.886;2023-12-29T12:51:44;11.60;99.90
60701;DHT22;46541;49.894;10.886;2023-12-29T12:54:12;11.60;99.90
60701;DHT22;46541;49.894;10.886;2023-12-29T12:56:43;11.60;99.90
60701;DHT22;46541;49.894;10.886;2023-12-29T12:59:10;11.60;99.90
60701;DHT22;46541;49.894;10.886;2023-12-29T13:01:38;11.60;99.90
60701;DHT22;46541;49.894;10.886;2023-12-29T13:04:06;11.60;99.90
60701;DHT22;46541;49.894;10.886;2023-12-29T13:06:34;11.60;99.90
60701;DHT22;46541;49.894;10.886;2023-12-29T13:09:01;11.50;99.90
60701;DHT22;46541;49.894;10.886;2023-12-29T13:11:31;11.60;99.90
60701;DHT22;46541;49.894;10.886;2023-12-29T13:13:58;11.60;99.90
60701;DHT22;46541;49.894;10.886;2023-12-29T13:16:30;11.60;99.90
60701;DHT22;46541;49.894;10.886;2023-12-29T13:19:05;11.60;99.90
60701;DHT22;46541;49.894;10.886;2023-12-29T13:21:39;11.60;99.90
60701;DHT22;46541;49.894;10.886;2023-12-29T13:24:06;11.70;99.90
60701;DHT22;46541;49.894;10.886;2023-12-29T13:26:34;11.60;99.90
60701;DHT22;46541;49.894;10.886;2023-12-29T13:29:01;11.60;99.90
60701;DHT22;46541;49.894;10.886;2023-12-29T13:31:28;11.70;99.90
60701;DHT22;46541;49.894;10.886;2023-12-29T13:34:06;11.60;99.90
60701;DHT22;46541;49.894;10.886;2023-12-29T13:37:00;11.60;99.90
60701;DHT22;46541;49.894;10.886;2023-12-29T13:42:05;11.60;99.90
60701;DHT22;46541;49.894;10.886;2023-12-29T13:44:33;11.60;99.90
60701;DHT22;46541;49.894;10.886;2023-12-29T13:47:01;11.50;99.90
60701;DHT22;46541;49.894;10.886;2023-12-29T13:49:28;11.50;99.90
60701;DHT22;46541;49.894;10.886;2023-12-29T13:51:59;11.50;99.90
60701;DHT22;46541;49.894;10.886;2023-12-29T13:54:27;11.50;99.90
60701;DHT22;46541;49.894;10.886;2023-12-29T13:56:54;11.50;99.90
60701;DHT22;46541;49.894;10.886;2023-12-29T13:59:30;11.50;99.90
60701;DHT22;46541;49.894;10.886;2023-12-29T14:04:43;11.50;99.90
60701;DHT22;46541;49.894;10.886;2023-12-29T14:07:10;11.50;99.90
60701;DHT22;46541;49.894;10.886;2023-12-29T14:09:37;11.50;99.90
60701;DHT22;46541;49.894;10.886;2023-12-29T14:12:05;11.50;99.90
60701;DHT22;46541;49.894;10.886;2023-12-29T14:14:33;11.60;99.90
60701;DHT22;46541;49.894;10.886;2023-12-29T14:16:59;11.70;99.90
60701;DHT22;46541;49.894;10.886;2023-12-29T14:19:34;11.60;99.90
60701;DHT22;46541;49.894;10.886;2023-12-29T14:22:02;11.60;99.90
60701;DHT22;46541;49.894;10.886;2023-12-29T14:24:29;11.60;99.90
60701;DHT22;46541;49.894;10.886;2023-12-29T14:26:57;11.60;99.90
60701;DHT22;46541;49.894;10.886;2023-12-29T14:29:25;11.60;99.90
60701;DHT22;46541;49.894;10.886;2023-12-29T14:31:53;11.70;99.90
60701;DHT22;46541;49.894;10.886;2023-12-29T14:34:21;11.60;99.90
60701;DHT22;46541;49.894;10.886;2023-12-29T14:36:48;11.60;99.90
60701;DHT22;46541;49.894;10.886;2023-12-29T14:39:15;11.70;99.90
60701;DHT22;46541;49.894;10.886;2023-12-29T14:41:42;11.60;99.90
60701;DHT22;46541;49.894;10.886;2023-12-29T14:44:09;11.60;99.90
60701;DHT22;46541;49.894;10.886;2023-12-29T14:46:36;11.60;99.90
60701;DHT22;46541;49.894;10.886;2023-12-29T14:49:04;11.50;99.90
60701;DHT22;46541;49.894;10.886;2023-12-29T14:51:31;11.50;99.90
60701;DHT22;46541;49.894;10.886;2023-12-29T14:53:58;11.50;99.90
60701;DHT22;46541;49.894;10.886;2023-12-29T14:56:25;11.40;99.90
60701;DHT22;46541;49.894;10.886;2023-12-29T14:58:52;11.30;99.90
60701;DHT22;46541;49.894;10.886;2023-12-29T15:01:18;11.30;99.90
60701;DHT22;46541;49.894;10.886;2023-12-29T15:03:45;11.30;99.90
60701;DHT22;46541;49.894;10.886;2023-12-29T15:06:12;11.30;99.90
60701;DHT22;46541;49.894;10.886;2023-12-29T15:08:39;11.20;99.90
60701;DHT22;46541;49.894;10.886;2023-12-29T15:11:07;11.20;99.90
60701;DHT22;46541;49.894;10.886;2023-12-29T15:13:34;11.20;99.90
60701;DHT22;46541;49.894;10.886;2023-12-29T15:16:02;11.20;99.90
60701;DHT22;46541;49.894;10.886;2023-12-29T15:18:29;11.10;99.90
60701;DHT22;46541;49.894;10.886;2023-12-29T15:20:58;11.10;99.90
60701;DHT22;46541;49.894;10.886;2023-12-29T15:23:25;11.10;99.90
60701;DHT22;46541;49.894;10.886;2023-12-29T15:25:51;11.10;99.90
60701;DHT22;46541;49.894;10.886;2023-12-29T15:28:19;11.10;99.90
60701;DHT22;46541;49.894;10.886;2023-12-29T15:30:46;11.10;99.90
60701;DHT22;46541;49.894;10.886;2023-12-29T15:33:13;11.10;99.90
60701;DHT22;46541;49.894;10.886;2023-12-29T15:35:41;11.10;99.90
60701;DHT22;46541;49.894;10.886;2023-12-29T15:38:08;11.20;99.90
60701;DHT22;46541;49.894;10.886;2023-12-29T15:40:35;11.10;99.90
60701;DHT22;46541;49.894;10.886;2023-12-29T15:43:03;11.10;99.90
60701;DHT22;46541;49.894;10.886;2023-12-29T15:45:33;11.10;99.90
60701;DHT22;46541;49.894;10.886;2023-12-29T15:48:01;11.20;99.90